sensor_id;sensor_type;location;lat;lon;timestamp;P1;durP1;ratioP1;P2;durP2;ratioP2
46399;SDS011;32104;50.838;4.388;2023-04-03T00:48:10;4.60;;;1.70;;
46399;SDS011;32104;50.838;4.388;2023-04-03T00:50:39;4.00;;;1.75;;
46399;SDS011;32104;50.838;4.388;2023-04-03T00:53:08;8.68;;;2.25;;
46399;SDS011;32104;50.838;4.388;2023-04-03T00:55:38;3.33;;;1.80;;
46399;SDS011;32104;50.838;4.388;2023-04-03T00:58:04;4.63;;;1.90;;
46399;SDS011;32104;50.838;4.388;2023-04-03T01:00:32;3.97;;;2.17;;
46399;SDS011;32104;50.838;4.388;2023-04-03T06:02:38;10.02;;;4.95;;
46399;SDS011;32104;50.838;4.388;2023-04-03T06:05:04;13.45;;;4.65;;
46399;SDS011;32104;50.838;4.388;2023-04-03T06:07:32;8.60;;;4.57;;
46399;SDS011;32104;50.838;4.388;2023-04-03T06:09:57;6.72;;;3.97;;
46399;SDS011;32104;50.838;4.388;2023-04-03T06:12:23;9.73;;;3.78;;
46399;SDS011;32104;50.838;4.388;2023-04-03T06:14:49;12.88;;;4.05;;
46399;SDS011;32104;50.838;4.388;2023-04-03T06:17:17;7.80;;;4.45;;
46399;SDS011;32104;50.838;4.388;2023-04-03T06:19:43;8.85;;;4.18;;
46399;SDS011;32104;50.838;4.388;2023-04-03T06:22:09;10.75;;;4.78;;
46399;SDS011;32104;50.838;4.388;2023-04-03T06:28:04;9.05;;;4.68;;
46399;SDS011;32104;50.838;4.388;2023-04-03T06:34:10;9.27;;;4.68;;
46399;SDS011;32104;50.838;4.388;2023-04-03T06:40:00;10.45;;;4.70;;
46399;SDS011;32104;50.838;4.388;2023-04-03T19:01:50;3.75;;;0.90;;
46399;SDS011;32104;50.838;4.388;2023-04-03T21:29:02;5.65;;;1.00;;
46399;SDS011;32104;50.838;4.388;2023-04-03T21:34:21;1.80;;;0.60;;
46399;SDS011;32104;50.838;4.388;2023-04-03T21:37:01;2.28;;;0.82;;
46399;SDS011;32104;50.838;4.388;2023-04-03T21:39:35;4.32;;;0.70;;
46399;SDS011;32104;50.838;4.388;2023-04-03T21:42:02;3.30;;;0.55;;
46399;SDS011;32104;50.838;4.388;2023-04-03T21:44:31;2.33;;;0.70;;
46399;SDS011;32104;50.838;4.388;2023-04-03T21:46:57;6.00;;;0.80;;
46399;SDS011;32104;50.838;4.388;2023-04-03T21:49:24;5.47;;;0.45;;
46399;SDS011;32104;50.838;4.388;2023-04-03T21:51:59;5.30;;;0.80;;
46399;SDS011;32104;50.838;4.388;2023-04-03T21:54:25;7.32;;;0.98;;
46399;SDS011;32104;50.838;4.388;2023-04-03T21:56:51;5.93;;;0.68;;
46399;SDS011;32104;50.838;4.388;2023-04-03T21:59:17;1.58;;;0.65;;
46399;SDS011;32104;50.838;4.388;2023-04-03T22:01:43;2.95;;;0.60;;
46399;SDS011;32104;50.838;4.388;2023-04-03T22:04:15;5.25;;;0.70;;
46399;SDS011;32104;50.838;4.388;2023-04-03T22:06:41;2.22;;;0.55;;
46399;SDS011;32104;50.838;4.388;2023-04-03T22:09:08;3.88;;;0.70;;
46399;SDS011;32104;50.838;4.388;2023-04-03T22:11:34;3.22;;;0.70;;
46399;SDS011;32104;50.838;4.388;2023-04-03T22:14:02;5.07;;;1.30;;
46399;SDS011;32104;50.838;4.388;2023-04-03T22:16:28;3.22;;;0.70;;
46399;SDS011;32104;50.838;4.388;2023-04-03T22:18:53;1.02;;;0.50;;
46399;SDS011;32104;50.838;4.388;2023-04-03T22:23:50;2.25;;;0.70;;
46399;SDS011;32104;50.838;4.388;2023-04-03T22:26:16;2.13;;;0.68;;
46399;SDS011;32104;50.838;4.388;2023-04-03T22:28:43;0.90;;;0.60;;
46399;SDS011;32104;50.838;4.388;2023-04-03T22:31:10;2.33;;;0.50;;
46399;SDS011;32104;50.838;4.388;2023-04-03T22:36:06;9.15;;;0.70;;
46399;SDS011;32104;50.838;4.388;2023-04-03T22:38:33;1.75;;;0.50;;
46399;SDS011;32104;50.838;4.388;2023-04-03T22:41:03;3.72;;;0.88;;
46399;SDS011;32104;50.838;4.388;2023-04-03T22:43:30;0.80;;;0.60;;
46399;SDS011;32104;50.838;4.388;2023-04-03T22:46:01;6.22;;;0.70;;
46399;SDS011;32104;50.838;4.388;2023-04-03T22:48:28;1.05;;;0.50;;
46399;SDS011;32104;50.838;4.388;2023-04-03T22:50:57;2.20;;;0.80;;
46399;SDS011;32104;50.838;4.388;2023-04-03T22:53:26;2.83;;;0.63;;
46399;SDS011;32104;50.838;4.388;2023-04-03T22:55:56;5.82;;;0.60;;
46399;SDS011;32104;50.838;4.388;2023-04-03T22:58:26;5.55;;;0.65;;
46399;SDS011;32104;50.838;4.388;2023-04-03T23:00:53;2.15;;;0.55;;
46399;SDS011;32104;50.838;4.388;2023-04-03T23:03:30;3.22;;;0.63;;
46399;SDS011;32104;50.838;4.388;2023-04-03T23:05:57;1.50;;;0.60;;
46399;SDS011;32104;50.838;4.388;2023-04-03T23:08:22;2.72;;;0.50;;
46399;SDS011;32104;50.838;4.388;2023-04-03T23:10:48;4.68;;;0.60;;
46399;SDS011;32104;50.838;4.388;2023-04-03T23:15:43;2.22;;;0.60;;
46399;SDS011;32104;50.838;4.388;2023-04-03T23:18:09;1.27;;;0.70;;
46399;SDS011;32104;50.838;4.388;2023-04-03T23:20:35;4.45;;;0.70;;
46399;SDS011;32104;50.838;4.388;2023-04-03T23:23:01;2.97;;;0.65;;
46399;SDS011;32104;50.838;4.388;2023-04-03T23:25:28;5.60;;;0.80;;
46399;SDS011;32104;50.838;4.388;2023-04-03T23:27:53;3.67;;;0.70;;
46399;SDS011;32104;50.838;4.388;2023-04-03T23:30:20;9.50;;;0.70;;
46399;SDS011;32104;50.838;4.388;2023-04-03T23:32:46;4.20;;;0.70;;
46399;SDS011;32104;50.838;4.388;2023-04-03T23:35:12;3.95;;;0.60;;
46399;SDS011;32104;50.838;4.388;2023-04-03T23:37:38;1.33;;;0.55;;
46399;SDS011;32104;50.838;4.388;2023-04-03T23:40:04;5.03;;;0.70;;
46399;SDS011;32104;50.838;4.388;2023-04-03T23:42:30;2.80;;;0.60;;
46399;SDS011;32104;50.838;4.388;2023-04-03T23:44:56;3.28;;;0.52;;
46399;SDS011;32104;50.838;4.388;2023-04-03T23:47:23;2.92;;;0.60;;
46399;SDS011;32104;50.838;4.388;2023-04-03T23:49:49;2.47;;;0.55;;
